createdAt,value
2018-07-01T00:01:50.305Z,101828.41
2018-07-01T00:04:19.229Z,101827.75
2018-07-01T00:06:47.555Z,101827.05
2018-07-01T00:09:16.205Z,101821.19
2018-07-01T00:11:44.531Z,101822.63
2018-07-01T00:14:12.856Z,101827.09
2018-07-01T00:16:41.183Z,101819.69
2018-07-01T00:19:08.936Z,101826.23
2018-07-01T00:21:37.256Z,101823.48
2018-07-01T00:24:06.176Z,101822.88
2018-07-01T00:26:34.506Z,101823.08
2018-07-01T00:29:02.269Z,101823.59
2018-07-01T00:31:31.194Z,101823.17
2018-07-01T00:33:58.940Z,101827.09
2018-07-01T00:36:27.849Z,101833.21
2018-07-01T00:38:56.176Z,101828.34
2018-07-01T00:41:24.507Z,101831.03
2018-07-01T00:43:52.243Z,101833.05
2018-07-01T00:46:20.564Z,101830.58
2018-07-01T00:48:48.905Z,101828.66
2018-07-01T00:51:17.911Z,101829.27
2018-07-01T00:53:46.341Z,101829.09
2018-07-01T00:56:14.944Z,101826.56
2018-07-01T00:58:43.272Z,101826.50
2018-07-01T01:01:11.684Z,101821.72
2018-07-01T01:03:40.017Z,101823.48
2018-07-01T01:06:08.397Z,101826.83
2018-07-01T01:08:36.667Z,101824.00
2018-07-01T01:11:05.007Z,101821.52
2018-07-01T01:13:33.373Z,101824.69
2018-07-01T01:16:01.704Z,101822.50
2018-07-01T01:18:30.088Z,101821.49
2018-07-01T01:20:57.849Z,101817.25
2018-07-01T01:23:26.195Z,101819.36
2018-07-01T01:25:55.261Z,101819.41
2018-07-01T01:28:24.162Z,101818.53
2018-07-01T01:30:52.486Z,101816.13
2018-07-01T01:33:20.228Z,101815.39
2018-07-01T01:35:48.555Z,101821.61
2018-07-01T01:38:17.454Z,101818.28
2018-07-01T01:40:45.207Z,101816.38
2018-07-01T01:43:13.883Z,101815.48
2018-07-01T01:45:42.486Z,101820.62
2018-07-01T01:48:10.818Z,101820.42
2018-07-01T01:50:39.142Z,101815.65
2018-07-01T01:53:07.493Z,101815.39
2018-07-01T01:55:35.815Z,101819.31
2018-07-01T01:58:04.118Z,101819.73
2018-07-01T02:00:32.463Z,101818.95
2018-07-01T02:03:00.793Z,101820.05
2018-07-01T02:05:30.243Z,101820.69
2018-07-01T02:07:57.440Z,101815.16
2018-07-01T02:10:25.985Z,101814.62
2018-07-01T02:12:55.101Z,101813.05
2018-07-01T02:15:23.425Z,101818.02
2018-07-01T02:17:51.792Z,101813.76
2018-07-01T02:20:20.149Z,101813.28
2018-07-01T02:22:48.739Z,101821.23
2018-07-01T02:25:17.124Z,101821.36
2018-07-01T02:27:45.502Z,101819.44
2018-07-01T02:30:13.810Z,101822.34
2018-07-01T02:32:42.160Z,101823.14
2018-07-01T02:35:10.605Z,101819.33
2018-07-01T02:37:38.885Z,101822.12
2018-07-01T02:40:07.242Z,101822.45
2018-07-01T02:42:35.532Z,101825.14
2018-07-01T02:45:03.892Z,101819.70
2018-07-01T02:47:33.851Z,101820.20
2018-07-01T02:50:00.826Z,101824.00
2018-07-01T02:52:29.390Z,101824.77
2018-07-01T02:54:57.497Z,101824.63
2018-07-01T02:57:25.299Z,101824.95
2018-07-01T02:59:54.216Z,101819.01
2018-07-01T03:02:22.522Z,101819.11
2018-07-01T03:04:50.843Z,101822.70
2018-07-01T03:12:47.291Z,101829.97
2018-07-01T03:15:15.635Z,101828.67
2018-07-01T03:17:43.967Z,101820.80
2018-07-01T03:20:12.282Z,101824.27
2018-07-01T03:22:40.607Z,101821.76
2018-07-01T03:25:08.943Z,101823.14
2018-07-01T03:27:37.286Z,101827.15
2018-07-01T03:30:05.654Z,101814.95
2018-07-01T03:32:33.398Z,101824.16
2018-07-01T03:35:01.726Z,101821.02
2018-07-01T03:37:30.621Z,101822.78
2018-07-01T03:39:58.959Z,101829.97
2018-07-01T03:42:27.512Z,101825.51
2018-07-01T03:44:55.041Z,101821.37
2018-07-01T03:47:23.362Z,101822.23
2018-07-01T03:49:52.273Z,101823.20
2018-07-01T03:52:20.605Z,101826.09
2018-07-01T03:54:48.940Z,101824.58
2018-07-01T03:57:17.282Z,101825.20
2018-07-01T03:59:45.375Z,101825.03
2018-07-01T04:02:13.920Z,101829.59
2018-07-01T04:04:42.241Z,101831.40
2018-07-01T04:07:09.986Z,101834.53
2018-07-01T04:09:38.914Z,101832.98
2018-07-01T04:12:07.236Z,101831.03
2018-07-01T04:14:34.989Z,101834.39
2018-07-01T04:17:03.316Z,101835.06
2018-07-01T04:19:32.220Z,101833.49
2018-07-01T04:22:00.211Z,101833.09
2018-07-01T04:24:28.347Z,101835.34
2018-07-01T04:26:57.268Z,101834.92
2018-07-01T04:29:25.610Z,101836.33
2018-07-01T04:31:53.365Z,101835.23
2018-07-01T04:34:22.267Z,101840.52
2018-07-01T04:36:50.605Z,101840.57
2018-07-01T04:39:18.953Z,101839.65
2018-07-01T04:41:46.706Z,101839.73
2018-07-01T04:44:15.645Z,101837.49
2018-07-01T04:46:43.939Z,101829.93
2018-07-01T04:49:12.348Z,101832.84
2018-07-01T04:51:40.650Z,101826.94
2018-07-01T04:54:08.987Z,101826.43
2018-07-01T04:56:36.737Z,101831.79
2018-07-01T04:59:05.641Z,101830.27
2018-07-01T05:01:33.984Z,101838.88
2018-07-01T05:04:02.321Z,101834.41
2018-07-01T05:06:30.054Z,101832.09
2018-07-01T05:08:58.962Z,101832.52
2018-07-01T05:11:27.318Z,101831.86
2018-07-01T05:13:55.648Z,101834.52
2018-07-01T05:16:24.298Z,101830.73
2018-07-01T05:18:51.967Z,101832.64
2018-07-01T05:21:20.645Z,101831.95
2018-07-01T05:23:48.966Z,101835.16
2018-07-01T05:26:16.731Z,101835.66
2018-07-01T05:28:45.659Z,101834.84
2018-07-01T05:31:14.042Z,101831.27
2018-07-01T05:33:41.788Z,101835.95
2018-07-01T05:36:10.816Z,101834.23
2018-07-01T05:38:39.737Z,101832.91
2018-07-01T05:41:08.077Z,101827.20
2018-07-01T05:43:38.473Z,101834.23
2018-07-01T05:46:04.750Z,101840.72
2018-07-01T05:48:33.060Z,101841.05
2018-07-01T05:51:01.429Z,101843.05
2018-07-01T05:53:29.158Z,101839.70
2018-07-01T05:55:57.480Z,101837.09
2018-07-01T05:58:26.409Z,101838.30
2018-07-01T06:00:54.803Z,101850.20
2018-07-01T06:03:23.771Z,101842.08
2018-07-01T06:05:52.082Z,101844.88
2018-07-01T06:08:20.425Z,101837.97
2018-07-01T06:10:51.555Z,101836.08
2018-07-01T06:13:18.198Z,101842.09
2018-07-01T06:15:45.968Z,101842.91
2018-07-01T06:18:14.858Z,101842.52
2018-07-01T06:20:43.202Z,101845.59
2018-07-01T06:23:11.527Z,101848.75
2018-07-01T06:25:39.890Z,101839.53
2018-07-01T06:28:07.671Z,101845.09
2018-07-01T06:30:53.620Z,101843.72
2018-07-01T06:33:20.173Z,101851.79
2018-07-01T06:35:48.646Z,101852.23
2018-07-01T06:38:16.872Z,101857.63
2018-07-01T06:40:45.142Z,101855.28
2018-07-01T06:43:13.464Z,101852.48
2018-07-01T06:45:41.821Z,101855.44
2018-07-01T06:48:10.137Z,101855.53
2018-07-01T06:50:38.476Z,101855.32
2018-07-01T06:53:09.637Z,101856.36
2018-07-01T06:55:37.969Z,101856.89
2018-07-01T06:58:06.412Z,101853.33
2018-07-01T07:00:34.761Z,101855.83
2018-07-01T07:03:03.082Z,101853.67
2018-07-01T07:05:31.418Z,101861.42
2018-07-01T07:07:59.761Z,101856.92
2018-07-01T07:10:28.149Z,101855.84
2018-07-01T07:12:56.502Z,101851.58
2018-07-01T07:15:24.226Z,101841.88
2018-07-01T07:17:53.156Z,101859.44
2018-07-01T07:20:21.470Z,101863.97
2018-07-01T07:22:49.798Z,101858.03
2018-07-01T07:25:18.121Z,101854.01
2018-07-01T07:27:47.085Z,101856.86
2018-07-01T07:33:11.081Z,101854.74
2018-07-01T07:35:39.406Z,101860.00
2018-07-01T07:38:07.725Z,101862.29
2018-07-01T07:40:36.089Z,101864.53
2018-07-01T07:43:04.417Z,101857.47
2018-07-01T07:45:32.179Z,101856.14
2018-07-01T07:48:00.526Z,101867.02
2018-07-01T07:50:29.462Z,101865.13
2018-07-01T07:52:57.786Z,101865.66
2018-07-01T07:55:26.111Z,101877.37
2018-07-01T07:57:53.902Z,101866.21
2018-07-01T08:00:22.819Z,101865.05
2018-07-01T08:02:51.147Z,101865.59
2018-07-01T08:05:19.515Z,101872.49
2018-07-01T08:07:47.848Z,101870.28
2018-07-01T08:10:16.165Z,101870.91
2018-07-01T08:12:44.536Z,101870.66
2018-07-01T08:15:12.835Z,101860.31
2018-07-01T08:17:41.157Z,101859.20
2018-07-01T08:20:17.056Z,101868.30
2018-07-01T08:22:42.958Z,101874.34
2018-07-01T08:25:11.297Z,101865.38
2018-07-01T08:27:39.609Z,101874.80
2018-07-01T08:30:07.931Z,101872.73
2018-07-01T08:32:36.252Z,101872.28
2018-07-01T08:35:04.014Z,101871.09
2018-07-01T08:37:32.964Z,101868.55
2018-07-01T08:40:01.312Z,101869.02
2018-07-01T08:42:29.619Z,101871.25
2018-07-01T08:44:58.167Z,101870.58
2018-07-01T08:47:32.740Z,101879.55
2018-07-01T09:04:36.468Z,101870.56
2018-07-01T09:09:32.608Z,101872.34
2018-07-01T09:12:01.533Z,101869.16
2018-07-01T09:14:29.865Z,101873.39
2018-07-01T09:16:57.661Z,101877.61
2018-07-01T09:19:26.566Z,101880.83
2018-07-01T09:21:54.916Z,101871.47
2018-07-01T09:24:23.264Z,101872.10
2018-07-01T09:26:54.874Z,101871.92
2018-07-01T09:29:23.249Z,101881.81
2018-07-01T09:31:50.995Z,101881.88
2018-07-01T09:34:19.318Z,101867.24
2018-07-01T09:36:47.690Z,101872.35
2018-07-01T09:39:16.593Z,101877.84
2018-07-01T09:41:44.913Z,101873.85
2018-07-01T09:44:13.296Z,101873.23
2018-07-01T09:46:41.049Z,101870.09
2018-07-01T09:49:09.991Z,101868.38
2018-07-01T09:51:38.322Z,101864.95
2018-07-01T09:54:06.694Z,101870.66
2018-07-01T09:56:34.459Z,101875.58
2018-07-01T09:59:03.385Z,101872.55
2018-07-01T10:01:34.194Z,101869.55
2018-07-01T10:04:02.517Z,101868.46
2018-07-01T10:06:31.464Z,101860.37
2018-07-01T10:08:59.793Z,101867.57
2018-07-01T10:11:28.856Z,101868.14
2018-07-01T10:13:56.464Z,101874.93
2018-07-01T10:16:25.320Z,101866.72
2018-07-01T10:18:53.587Z,101873.31
2018-07-01T10:21:21.865Z,101869.28
2018-07-01T10:23:50.199Z,101877.36
2018-07-01T10:26:18.526Z,101863.20
2018-07-01T10:28:46.275Z,101863.41
2018-07-01T10:31:15.201Z,101869.69
2018-07-01T10:33:43.553Z,101874.16
2018-07-01T10:36:11.896Z,101875.56
2018-07-01T10:38:40.226Z,101876.19
2018-07-01T10:41:08.566Z,101868.69
2018-07-01T10:43:36.893Z,101876.92
2018-07-01T10:46:04.641Z,101874.48
2018-07-01T10:48:33.550Z,101873.69
2018-07-01T10:51:01.900Z,101880.16
2018-07-01T10:53:30.230Z,101872.27
2018-07-01T10:55:58.188Z,101865.81
2018-07-01T10:58:26.921Z,101865.74
2018-07-01T11:00:54.664Z,101861.02
2018-07-01T11:03:23.597Z,101865.42
2018-07-01T11:05:51.934Z,101865.61
2018-07-01T11:08:24.177Z,101879.72
2018-07-01T11:10:51.928Z,101871.03
2018-07-01T11:13:20.843Z,101871.58
2018-07-01T11:15:49.161Z,101878.53
2018-07-01T11:18:17.484Z,101879.98
2018-07-01T11:20:46.038Z,101878.19
2018-07-01T11:23:13.564Z,101873.53
2018-07-01T11:25:41.890Z,101872.20
2018-07-01T11:28:10.814Z,101879.80
2018-07-01T11:30:39.142Z,101881.66
2018-07-01T11:33:07.516Z,101877.68
2018-07-01T11:35:35.799Z,101872.19
2018-07-01T11:38:04.139Z,101874.93
2018-07-01T11:40:32.491Z,101869.33
2018-07-01T11:43:05.267Z,101869.17
2018-07-01T11:45:29.488Z,101875.05
2018-07-01T11:47:57.809Z,101880.07
2018-07-01T11:50:26.458Z,101867.03
2018-07-01T11:52:55.387Z,101865.62
2018-07-01T11:55:23.132Z,101860.63
2018-07-01T11:57:51.466Z,101860.02
2018-07-01T12:00:19.782Z,101858.57
2018-07-01T12:02:53.042Z,101850.39
2018-07-01T12:05:22.151Z,101852.18
2018-07-01T12:07:50.483Z,101851.14
2018-07-01T12:10:18.852Z,101853.84
2018-07-01T12:12:47.164Z,101850.56
2018-07-01T12:15:20.117Z,101841.76
2018-07-01T12:17:49.172Z,101846.10
2018-07-01T12:20:18.305Z,101846.23
2018-07-01T12:22:46.616Z,101847.57
2018-07-01T12:25:14.358Z,101850.17
2018-07-01T12:27:42.679Z,101836.87
2018-07-01T12:30:11.011Z,101843.56
2018-07-01T12:32:39.918Z,101846.39
2018-07-01T12:35:08.247Z,101852.56
2018-07-01T12:37:36.560Z,101847.84
2018-07-01T12:40:04.893Z,101849.70
2018-07-01T12:42:33.229Z,101844.91
2018-07-01T12:45:01.570Z,101837.87
2018-07-01T12:47:29.327Z,101850.91
2018-07-01T12:49:58.223Z,101847.56
2018-07-01T12:52:25.978Z,101846.53
2018-07-01T12:54:54.360Z,101843.48
2018-07-01T12:57:23.208Z,101827.73
2018-07-01T12:59:51.535Z,101839.05
2018-07-01T13:02:19.864Z,101842.53
2018-07-01T13:04:48.170Z,101847.94
2018-07-01T13:07:16.490Z,101847.22
2018-07-01T13:09:44.823Z,101841.87
2018-07-01T13:12:13.251Z,101844.52
2018-07-01T13:14:40.934Z,101829.30
2018-07-01T13:17:09.250Z,101843.42
2018-07-01T13:19:38.161Z,101840.59
2018-07-01T13:22:06.481Z,101844.65
2018-07-01T13:24:34.226Z,101846.70
2018-07-01T13:27:03.122Z,101840.69
2018-07-01T13:29:31.447Z,101846.54
2018-07-01T13:31:59.763Z,101846.92
2018-07-01T13:34:28.087Z,101843.12
2018-07-01T13:36:55.827Z,101840.64
2018-07-01T13:39:24.726Z,101844.63
2018-07-01T13:41:53.049Z,101836.39
2018-07-01T13:44:21.405Z,101823.47
2018-07-01T13:46:49.748Z,101828.95
2018-07-01T13:49:18.078Z,101837.37
2018-07-01T13:51:46.972Z,101834.47
2018-07-01T13:54:15.299Z,101832.52
2018-07-01T13:56:43.639Z,101831.56
2018-07-01T13:59:11.958Z,101830.00
2018-07-01T14:01:39.727Z,101822.30
2018-07-01T14:04:08.669Z,101829.38
2018-07-01T14:06:36.415Z,101821.27
2018-07-01T14:09:05.287Z,101818.81
2018-07-01T14:11:33.605Z,101828.23
2018-07-01T14:14:01.979Z,101826.48
2018-07-01T14:16:30.295Z,101819.98
2018-07-01T14:18:58.036Z,101815.28
2018-07-01T14:21:31.298Z,101820.48
2018-07-01T14:23:59.704Z,101813.27
2018-07-01T14:26:28.038Z,101821.52
2018-07-01T14:28:55.777Z,101815.43
2018-07-01T14:31:24.091Z,101820.45
2018-07-01T14:33:52.982Z,101821.30
2018-07-01T14:36:20.733Z,101822.55
2018-07-01T14:38:49.056Z,101818.78
2018-07-01T14:41:17.957Z,101817.81
2018-07-01T14:43:46.278Z,101809.78
2018-07-01T14:46:14.073Z,101817.85
2018-07-01T14:48:42.992Z,101815.93
2018-07-01T14:51:11.300Z,101820.64
2018-07-01T14:53:39.761Z,101819.08
2018-07-01T14:56:07.502Z,101821.50
2018-07-01T14:58:36.421Z,101820.73
2018-07-01T15:01:04.753Z,101823.95
2018-07-01T15:03:33.060Z,101816.26
2018-07-01T15:06:01.379Z,101819.72
2018-07-01T15:08:29.110Z,101818.03
2018-07-01T15:10:58.950Z,101809.11
2018-07-01T15:13:27.286Z,101810.81
2018-07-01T15:15:55.684Z,101805.78
2018-07-01T15:18:23.475Z,101811.61
2018-07-01T15:20:52.379Z,101813.18
2018-07-01T15:23:20.770Z,101809.84
2018-07-01T15:25:49.125Z,101803.67
2018-07-01T15:28:17.461Z,101802.32
2018-07-01T15:30:45.773Z,101799.14
2018-07-01T15:33:15.539Z,101809.89
2018-07-01T15:35:42.780Z,101816.13
2018-07-01T15:38:10.536Z,101809.36
2018-07-01T15:40:44.610Z,101812.85
2018-07-01T15:43:13.027Z,101807.66
2018-07-01T15:45:40.810Z,101808.16
2018-07-01T15:48:09.718Z,101813.94
2018-07-01T15:50:38.061Z,101810.23
2018-07-01T15:53:06.446Z,101807.91
2018-07-01T15:55:36.336Z,101805.70
2018-07-01T15:58:04.667Z,101802.61
2018-07-01T16:00:33.006Z,101805.97
2018-07-01T16:03:01.354Z,101800.17
2018-07-01T16:05:29.431Z,101799.37
2018-07-01T16:07:58.013Z,101804.19
2018-07-01T16:10:25.806Z,101809.92
2018-07-01T16:12:54.704Z,101801.95
2018-07-01T16:15:23.098Z,101800.59
2018-07-01T16:17:51.478Z,101805.80
2018-07-01T16:20:19.229Z,101805.25
2018-07-01T16:22:48.246Z,101804.20
2018-07-01T16:25:16.648Z,101802.05
2018-07-01T16:27:45.088Z,101809.67
2018-07-01T16:30:13.407Z,101801.44
2018-07-01T16:32:41.830Z,101803.81
2018-07-01T16:35:10.151Z,101803.16
2018-07-01T16:37:37.895Z,101798.36
2018-07-01T16:40:06.894Z,101803.09
2018-07-01T16:42:35.207Z,101796.91
2018-07-01T16:45:03.561Z,101794.48
2018-07-01T16:47:33.503Z,101794.39
2018-07-01T16:50:00.849Z,101791.79
2018-07-01T16:52:30.145Z,101788.90
2018-07-01T16:54:57.178Z,101794.20
2018-07-01T16:57:25.914Z,101787.44
2018-07-01T16:59:54.618Z,101784.57
2018-07-01T17:02:22.975Z,101790.55
2018-07-01T17:04:51.292Z,101791.73
2018-07-01T17:07:19.599Z,101783.96
2018-07-01T17:09:47.343Z,101785.19
2018-07-01T17:12:16.278Z,101785.23
2018-07-01T17:14:44.670Z,101780.15
2018-07-01T17:17:12.999Z,101776.41
2018-07-01T17:19:41.419Z,101779.59
2018-07-01T17:22:23.444Z,101784.86
2018-07-01T17:24:51.274Z,101792.04
2018-07-01T17:27:19.601Z,101784.59
2018-07-01T17:29:51.804Z,101783.81
2018-07-01T17:32:21.913Z,101786.91
2018-07-01T17:34:50.710Z,101787.91
2018-07-01T17:37:23.995Z,101780.06
2018-07-01T17:39:52.432Z,101780.64
2018-07-01T17:42:20.162Z,101778.20
2018-07-01T17:44:48.564Z,101776.65
2018-07-01T17:49:52.619Z,101778.44
2018-07-01T17:52:20.932Z,101780.30
2018-07-01T17:54:49.307Z,101771.31
2018-07-01T17:57:17.773Z,101773.04
2018-07-01T17:59:46.126Z,101768.59
2018-07-01T18:02:15.319Z,101766.86
2018-07-01T18:04:50.681Z,101770.97
2018-07-01T18:07:20.125Z,101760.94
2018-07-01T18:09:47.449Z,101775.47
2018-07-01T18:12:16.210Z,101769.20
2018-07-01T18:14:44.782Z,101765.14
2018-07-01T18:17:13.232Z,101766.34
2018-07-01T18:19:41.548Z,101761.05
2018-07-01T18:22:27.956Z,101756.13
2018-07-01T18:25:04.502Z,101755.09
2018-07-01T18:27:22.816Z,101752.42
2018-07-01T18:29:51.283Z,101754.45
2018-07-01T18:32:19.826Z,101755.05
2018-07-01T18:34:48.204Z,101750.95
2018-07-01T18:37:16.032Z,101749.04
2018-07-01T18:39:44.972Z,101740.41
2018-07-01T18:42:13.437Z,101741.67
2018-07-01T18:44:41.231Z,101744.38
2018-07-01T18:47:10.192Z,101741.82
2018-07-01T18:49:38.569Z,101745.80
2018-07-01T18:52:08.596Z,101749.49
2018-07-01T18:54:36.354Z,101740.10
2018-07-01T18:57:04.710Z,101741.31
2018-07-01T18:59:34.564Z,101742.76
2018-07-01T19:02:03.494Z,101738.90
2018-07-01T19:04:31.825Z,101733.91
2018-07-01T19:07:00.187Z,101734.20
2018-07-01T19:09:28.472Z,101729.60
2018-07-01T19:11:56.823Z,101729.33
2018-07-01T19:14:31.405Z,101728.66
2018-07-01T19:17:00.522Z,101721.25
2018-07-01T19:19:28.305Z,101719.81
2018-07-01T19:21:57.293Z,101716.77
2018-07-01T19:24:25.683Z,101718.13
2018-07-01T19:26:54.246Z,101719.23
2018-07-01T19:29:22.585Z,101718.89
2018-07-01T19:31:50.370Z,101724.03
2018-07-01T19:34:19.292Z,101722.98
2018-07-01T19:36:47.669Z,101722.37
2018-07-01T19:39:16.046Z,101718.92
2018-07-01T19:41:44.384Z,101715.72
2018-07-01T19:44:12.731Z,101715.27
2018-07-01T19:46:41.599Z,101710.52
2018-07-01T19:49:09.930Z,101715.22
2018-07-01T19:51:38.286Z,101711.41
2018-07-01T19:54:06.631Z,101704.16
2018-07-01T19:56:35.009Z,101703.81
2018-07-01T19:59:03.437Z,101704.02
2018-07-01T20:01:31.204Z,101705.72
2018-07-01T20:04:00.165Z,101701.47
2018-07-01T20:06:28.527Z,101694.64
2018-07-01T20:08:56.850Z,101700.06
2018-07-01T20:11:25.409Z,101698.16
2018-07-01T20:13:53.542Z,101696.95
2018-07-01T20:16:21.863Z,101691.91
2018-07-01T20:18:50.188Z,101690.80
2018-07-01T20:21:18.509Z,101690.19
2018-07-01T20:23:46.971Z,101688.44
2018-07-01T20:26:15.306Z,101685.80
2018-07-01T20:28:43.627Z,101685.23
2018-07-01T20:31:11.961Z,101686.64
2018-07-01T20:33:40.968Z,101685.55
2018-07-01T20:36:09.405Z,101678.54
2018-07-01T20:38:37.648Z,101683.92
2018-07-01T20:41:05.982Z,101680.86
2018-07-01T20:43:34.323Z,101683.19
2018-07-01T20:46:02.068Z,101677.05
2018-07-01T20:48:30.989Z,101674.08
2018-07-01T20:50:59.410Z,101674.91
2018-07-01T20:53:27.713Z,101672.02
2018-07-01T20:55:55.453Z,101674.53
2018-07-01T21:00:58.358Z,101676.05
2018-07-01T21:03:26.677Z,101675.59
2018-07-01T21:05:55.113Z,101671.43
2018-07-01T21:08:23.387Z,101667.15
2018-07-01T21:10:52.906Z,101665.80
2018-07-01T21:13:21.816Z,101665.27
2018-07-01T21:15:50.140Z,101664.03
2018-07-01T21:18:18.495Z,101661.67
2018-07-01T21:20:46.240Z,101662.55
2018-07-01T21:23:15.155Z,101657.91
2018-07-01T21:25:43.707Z,101658.94
2018-07-01T21:28:11.386Z,101657.52
2018-07-01T21:30:40.361Z,101657.14
2018-07-01T21:33:17.243Z,101652.38
2018-07-01T21:35:44.974Z,101653.13
2018-07-01T21:38:14.009Z,101650.75
2018-07-01T21:40:42.333Z,101639.10
2018-07-01T21:43:10.062Z,101636.84
2018-07-01T21:45:38.382Z,101630.55
2018-07-01T21:48:07.284Z,101630.50
2018-07-01T21:50:35.604Z,101620.05
2018-07-01T21:53:03.939Z,101618.38
2018-07-01T21:55:31.670Z,101614.19
2018-07-01T21:58:00.133Z,101615.00
2018-07-01T22:00:28.892Z,101610.98
2018-07-01T22:02:57.218Z,101617.84
2018-07-01T22:05:25.531Z,101611.16
2018-07-01T22:07:53.265Z,101609.25
2018-07-01T22:10:22.177Z,101609.69
2018-07-01T22:12:50.494Z,101609.14
2018-07-01T22:15:25.390Z,101608.33
2018-07-01T22:17:53.735Z,101599.25
2018-07-01T22:20:21.481Z,101603.20
2018-07-01T22:22:50.394Z,101602.28
2018-07-01T22:25:18.140Z,101596.25
2018-07-01T22:27:47.403Z,101594.04
2018-07-01T22:30:15.725Z,101594.57
2018-07-01T22:32:43.461Z,101594.06
2018-07-01T22:35:12.399Z,101591.47
2018-07-01T22:37:40.734Z,101588.66
2018-07-01T22:40:09.068Z,101582.67
2018-07-01T22:42:37.377Z,101582.85
2018-07-01T22:45:05.717Z,101586.47
2018-07-01T22:47:33.456Z,101582.84
2018-07-01T22:50:02.367Z,101578.77
2018-07-01T22:52:30.102Z,101574.19
2018-07-01T22:54:58.996Z,101578.66
2018-07-01T22:57:27.321Z,101574.72
2018-07-01T22:59:55.644Z,101575.91
2018-07-01T23:02:36.755Z,101567.62
2018-07-01T23:05:03.413Z,101562.95
2018-07-01T23:07:32.317Z,101561.83
2018-07-01T23:10:00.643Z,101554.80
2018-07-01T23:12:28.373Z,101552.89
2018-07-01T23:14:56.694Z,101550.57
2018-07-01T23:17:25.592Z,101549.56
2018-07-01T23:19:53.333Z,101546.23
2018-07-01T23:22:22.231Z,101545.21
2018-07-01T23:24:50.561Z,101545.46
2018-07-01T23:27:18.883Z,101549.16
2018-07-01T23:29:46.666Z,101540.37
2018-07-01T23:32:14.989Z,101541.90
2018-07-01T23:34:43.898Z,101538.09
2018-07-01T23:37:12.926Z,101538.55
2018-07-01T23:39:40.188Z,101535.19
2018-07-01T23:42:08.869Z,101539.52
2018-07-01T23:44:36.623Z,101534.81
2018-07-01T23:47:04.938Z,101531.77
2018-07-01T23:49:33.248Z,101530.73
2018-07-01T23:52:02.151Z,101538.87
2018-07-01T23:54:30.452Z,101525.59
2018-07-01T23:56:58.204Z,101529.15
2018-07-01T23:59:26.524Z,101530.42
